Time;durP1;ratioP1;P1;durP2;ratioP2;P2;SDS_P1;SDS_P2;PMS_P1;PMS_P2;Temp;Humidity;BMP_temperature;BMP_pressure;BME280_temperature;BME280_humidity;BME280_pressure;Samples;Min_cycle;Max_cycle;Signal;HPM_P1;HPM_P2
2021/12/15 00:02:10;;;;;;;28.25;15.73;;;21.10;53.70;;;;;;5098030;28;20175;-70
2021/12/15 00:04:36;;;;;;;28.70;15.93;;;21.10;53.70;;;;;;5097493;28;20107;-70
2021/12/15 00:07:03;;;;;;;32.03;16.00;;;21.20;53.80;;;;;;5097896;28;20094;-70
2021/12/15 00:09:29;;;;;;;29.02;15.55;;;21.10;53.80;;;;;;5097565;28;20048;-70
2021/12/15 00:11:55;;;;;;;31.38;14.45;;;21.10;53.80;;;;;;5097433;28;20051;-69
2021/12/15 00:14:22;;;;;;;30.50;15.90;;;21.10;53.70;;;;;;5097432;28;20138;-70
2021/12/15 00:16:50;;;;;;;28.63;16.75;;;21.20;53.70;;;;;;5097705;28;20043;-71
2021/12/15 00:19:16;;;;;;;32.28;17.25;;;21.10;53.60;;;;;;5097499;28;20110;-70
2021/12/15 00:21:42;;;;;;;33.00;16.27;;;21.20;53.60;;;;;;5097540;28;20040;-70
2021/12/15 00:24:10;;;;;;;26.25;13.90;;;21.20;53.50;;;;;;5097350;28;20040;-70
2021/12/15 00:26:37;;;;;;;30.98;15.85;;;21.20;53.40;;;;;;5097243;28;20037;-70
2021/12/15 00:29:06;;;;;;;26.10;14.15;;;21.30;53.40;;;;;;5097424;28;20040;-70
2021/12/15 00:31:32;;;;;;;27.38;14.38;;;21.20;53.20;;;;;;5097256;28;20064;-71
2021/12/15 00:34:01;;;;;;;27.10;15.15;;;21.20;53.30;;;;;;5096423;28;20044;-70
2021/12/15 00:36:27;;;;;;;24.13;13.95;;;21.30;53.30;;;;;;5097396;28;20044;-70
2021/12/15 00:38:53;;;;;;;28.38;14.32;;;21.30;53.30;;;;;;5097305;28;20044;-70
2021/12/15 00:41:19;;;;;;;27.83;14.52;;;21.20;53.10;;;;;;5096490;28;20074;-70
2021/12/15 00:43:46;;;;;;;29.38;13.70;;;21.30;53.10;;;;;;5097200;28;20036;-71
2021/12/15 00:46:12;;;;;;;27.30;14.43;;;21.30;53.10;;;;;;5096997;28;20047;-70
2021/12/15 00:48:38;;;;;;;31.70;15.07;;;21.30;53.10;;;;;;5097078;28;20062;-70
2021/12/15 00:51:05;;;;;;;23.08;13.00;;;21.20;53.10;;;;;;5097056;28;20067;-70
2021/12/15 00:53:31;;;;;;;23.27;12.93;;;21.20;53.10;;;;;;5096557;28;20621;-71
2021/12/15 00:55:58;;;;;;;27.20;14.00;;;21.20;53.20;;;;;;5096970;28;20033;-71
2021/12/15 00:58:24;;;;;;;26.02;14.70;;;21.20;52.90;;;;;;5096384;28;20070;-70
2021/12/15 01:00:55;;;;;;;24.98;14.35;;;21.20;53.10;;;;;;5096852;28;20040;-70
2021/12/15 01:03:22;;;;;;;26.23;14.20;;;21.10;53.00;;;;;;5096317;28;20048;-70
2021/12/15 01:05:52;;;;;;;22.73;13.52;;;21.20;53.00;;;;;;5096503;28;20067;-70
2021/12/15 01:08:23;;;;;;;26.45;13.82;;;21.20;53.00;;;;;;5096699;28;20037;-71
2021/12/15 01:21:38;;;;;;;24.50;11.05;;;21.10;53.00;;;;;;5096708;28;20048;-71
2021/12/15 01:24:05;;;;;;;24.38;13.85;;;21.10;53.10;;;;;;5096723;28;20104;-70
2021/12/15 01:26:31;;;;;;;23.65;13.70;;;21.10;52.90;;;;;;5096494;28;20059;-70
2021/12/15 01:28:57;;;;;;;25.95;14.40;;;21.10;52.70;;;;;;5095858;28;20063;-70
2021/12/15 01:31:23;;;;;;;24.40;13.07;;;21.20;52.70;;;;;;5095712;28;20049;-71
2021/12/15 01:33:50;;;;;;;24.08;12.80;;;21.20;52.80;;;;;;5096516;28;20048;-70
2021/12/15 01:36:16;;;;;;;32.03;14.52;;;21.10;52.80;;;;;;5095522;28;20099;-71
2021/12/15 01:38:46;;;;;;;32.20;13.80;;;21.10;52.80;;;;;;5095483;28;20040;-72
2021/12/15 01:41:19;;;;;;;25.50;12.93;;;21.10;52.90;;;;;;5096489;28;20068;-71
2021/12/15 01:46:55;;;;;;;26.48;13.40;;;21.00;53.30;;;;;;5095295;28;20028;-70
2021/12/15 01:49:45;;;;;;;24.67;13.02;;;21.00;53.30;;;;;;5096467;28;20047;-70
2021/12/15 01:52:16;;;;;;;21.70;12.05;;;21.00;53.50;;;;;;5096337;28;20048;-70
2021/12/15 01:55:00;;;;;;;23.05;13.10;;;21.00;53.50;;;;;;5095615;28;20047;-71
2021/12/15 01:57:28;;;;;;;24.67;12.25;;;21.00;53.10;;;;;;5096337;28;20037;-70
2021/12/15 01:59:56;;;;;;;23.88;13.32;;;21.10;53.20;;;;;;5095609;28;20032;-70
2021/12/15 02:02:23;;;;;;;27.25;14.55;;;21.10;53.30;;;;;;5096419;28;20048;-70
2021/12/15 02:04:53;;;;;;;24.90;13.63;;;21.10;53.30;;;;;;5096070;28;20040;-71
2021/12/15 02:07:22;;;;;;;23.80;12.65;;;21.10;53.10;;;;;;5099434;28;20051;-70
2021/12/15 02:12:23;;;;;;;24.92;11.63;;;21.10;52.90;;;;;;5099866;28;20064;-70
2021/12/15 02:14:51;;;;;;;23.25;13.07;;;21.10;53.00;;;;;;5099828;28;20041;-70
2021/12/15 02:17:18;;;;;;;24.67;12.82;;;21.10;52.80;;;;;;5099880;28;20063;-70
2021/12/15 02:19:44;;;;;;;25.50;13.25;;;21.20;52.80;;;;;;5099195;28;20048;-71
2021/12/15 02:22:11;;;;;;;26.73;13.80;;;21.10;52.60;;;;;;5099327;28;20044;-71
2021/12/15 02:24:39;;;;;;;22.60;13.15;;;21.10;52.70;;;;;;5099579;28;20044;-71
2021/12/15 02:27:06;;;;;;;23.75;13.63;;;21.20;52.70;;;;;;5098981;28;20112;-71
2021/12/15 02:29:38;;;;;;;24.13;13.38;;;21.20;52.70;;;;;;5099009;28;20044;-71
2021/12/15 02:37:18;;;;;;;26.33;13.75;;;21.10;52.50;;;;;;5098862;28;20064;-70
2021/12/15 02:39:50;;;;;;;22.45;12.57;;;21.10;52.50;;;;;;5098897;28;20068;-70
2021/12/15 02:42:19;;;;;;;26.70;12.80;;;21.10;52.50;;;;;;5098973;28;20036;-70
2021/12/15 02:44:46;;;;;;;23.65;12.40;;;21.10;52.50;;;;;;5099474;28;20055;-70
2021/12/15 02:47:19;;;;;;;23.55;13.88;;;21.10;52.60;;;;;;5099292;28;20040;-71
2021/12/15 02:49:47;;;;;;;23.33;13.18;;;21.10;52.60;;;;;;5099482;28;20036;-70
2021/12/15 02:52:13;;;;;;;25.75;13.98;;;21.00;52.40;;;;;;5099323;28;20044;-70
2021/12/15 02:54:40;;;;;;;23.17;11.88;;;21.00;52.50;;;;;;5099133;28;20044;-71
2021/12/15 02:57:11;;;;;;;24.80;13.23;;;20.90;52.70;;;;;;5099164;28;20041;-70
2021/12/15 02:59:54;;;;;;;20.08;11.57;;;21.10;52.60;;;;;;5099188;28;20075;-73
2021/12/15 03:05:16;;;;;;;23.30;11.95;;;21.00;52.60;;;;;;5099129;28;19908;-70
2021/12/15 03:07:58;;;;;;;23.70;12.13;;;20.90;52.60;;;;;;5098843;28;20053;-70
2021/12/15 03:15:54;;;;;;;19.48;11.27;;;20.70;52.60;;;;;;5098435;28;20110;-70
2021/12/15 03:18:24;;;;;;;17.45;9.75;;;20.90;52.70;;;;;;5098694;28;20049;-70
2021/12/15 03:21:04;;;;;;;23.08;10.95;;;20.80;52.60;;;;;;5097854;28;20075;-71
2021/12/15 03:23:37;;;;;;;21.63;10.50;;;20.70;52.60;;;;;;5098916;28;20044;-70
2021/12/15 03:26:04;;;;;;;24.15;11.90;;;20.90;52.70;;;;;;5098735;28;20055;-71
2021/12/15 03:39:20;;;;;;;21.33;10.80;;;20.90;52.20;;;;;;5098545;28;20044;-70
2021/12/15 03:41:55;;;;;;;15.55;8.77;;;20.90;52.10;;;;;;5098113;28;20050;-71
2021/12/15 03:44:22;;;;;;;15.38;9.50;;;20.90;52.20;;;;;;5092242;28;20052;-70
2021/12/15 03:46:48;;;;;;;14.32;9.35;;;20.90;52.30;;;;;;5089226;28;20032;-70
2021/12/15 03:49:14;;;;;;;14.90;9.32;;;21.00;52.00;;;;;;5098126;28;20054;-70
2021/12/15 03:51:40;;;;;;;14.55;7.95;;;21.00;52.00;;;;;;5098069;28;20048;-70
2021/12/15 03:54:06;;;;;;;13.32;7.90;;;21.10;52.00;;;;;;5098252;28;20066;-70
2021/12/15 03:56:36;;;;;;;9.48;5.85;;;21.10;51.80;;;;;;5097927;28;20033;-70
2021/12/15 03:59:03;;;;;;;9.57;5.47;;;21.10;51.80;;;;;;5097989;28;20064;-70
2021/12/15 04:01:29;;;;;;;8.20;5.18;;;21.10;51.70;;;;;;5098005;28;20083;-70
2021/12/15 04:03:56;;;;;;;8.15;5.15;;;21.10;51.80;;;;;;5097752;28;20044;-70
2021/12/15 04:06:27;;;;;;;11.18;5.25;;;21.30;51.80;;;;;;5097846;28;20100;-71
2021/12/15 04:08:55;;;;;;;6.68;4.90;;;21.20;51.60;;;;;;5097993;28;20067;-70
2021/12/15 04:11:24;;;;;;;6.85;4.90;;;21.10;51.60;;;;;;5097690;28;20626;-70
2021/12/15 04:13:52;;;;;;;8.57;5.38;;;21.20;51.40;;;;;;5097703;28;20041;-70
2021/12/15 04:16:59;;;;;;;7.03;4.60;;;21.10;51.30;;;;;;5097614;28;20056;-70
2021/12/15 04:19:13;;;;;;;;;;;21.20;51.40;;;;;;5096938;28;20055;-71
2021/12/15 04:21:41;;;;;;;12.10;5.88;;;21.40;51.20;;;;;;5097748;28;19972;-71
2021/12/15 04:24:12;;;;;;;9.20;4.97;;;21.40;51.00;;;;;;5097445;28;20068;-71
2021/12/15 04:26:38;;;;;;;8.98;5.47;;;21.50;50.80;;;;;;5096805;28;20047;-71
2021/12/15 04:29:05;;;;;;;7.68;5.03;;;21.60;50.80;;;;;;5096860;28;20041;-71
2021/12/15 04:31:35;;;;;;;10.02;5.38;;;21.60;50.80;;;;;;5097120;28;20116;-70
2021/12/15 04:34:11;;;;;;;9.73;6.18;;;21.70;51.00;;;;;;5097475;28;20040;-71
2021/12/15 04:36:44;;;;;;;12.43;6.00;;;21.60;51.00;;;;;;5097176;28;20075;-70
2021/12/15 04:39:14;;;;;;;11.93;6.35;;;22.00;54.70;;;;;;5096659;28;20037;-71
2021/12/15 04:41:46;;;;;;;8.38;5.78;;;22.40;54.20;;;;;;5097326;28;20044;-71
2021/12/15 04:44:15;;;;;;;11.93;6.78;;;22.60;52.50;;;;;;5097295;28;20056;-71
2021/12/15 04:46:57;;;;;;;11.93;7.07;;;22.70;50.90;;;;;;5096687;28;20054;-72
2021/12/15 04:49:23;;;;;;;11.15;6.32;;;22.70;48.00;;;;;;5097257;28;20045;-72
2021/12/15 04:51:49;;;;;;;11.25;7.45;;;22.60;46.30;;;;;;5097251;28;20040;-72
2021/12/15 04:54:17;;;;;;;11.27;7.70;;;22.60;45.40;;;;;;5096992;28;20067;-70
2021/12/15 04:56:43;;;;;;;12.43;7.75;;;22.70;44.10;;;;;;5096835;28;20039;-70
2021/12/15 04:59:10;;;;;;;12.43;7.72;;;22.60;43.20;;;;;;5096776;28;20082;-70
2021/12/15 05:01:36;;;;;;;12.00;7.60;;;22.30;43.50;;;;;;5096629;28;20047;-69
2021/12/15 05:04:03;;;;;;;14.05;8.85;;;22.10;44.10;;;;;;5095468;28;20033;-70
2021/12/15 05:06:30;;;;;;;12.35;7.40;;;21.90;44.90;;;;;;5096159;28;20035;-69
2021/12/15 05:08:56;;;;;;;11.30;7.60;;;21.90;45.60;;;;;;5096248;28;20068;-71
2021/12/15 05:11:22;;;;;;;10.85;7.10;;;21.80;46.30;;;;;;5096171;28;20041;-72
2021/12/15 05:13:49;;;;;;;14.50;7.47;;;21.60;46.80;;;;;;5095500;28;20394;-71
2021/12/15 05:16:16;;;;;;;13.77;6.95;;;21.60;48.20;;;;;;5096098;28;20040;-70
2021/12/15 05:18:43;;;;;;;10.80;6.88;;;21.60;48.60;;;;;;5096003;28;20040;-70
2021/12/15 05:21:10;;;;;;;13.35;6.60;;;21.60;48.70;;;;;;5096071;28;20044;-71
2021/12/15 05:23:39;;;;;;;10.98;6.65;;;21.60;48.80;;;;;;5095368;28;20040;-71
2021/12/15 05:26:05;;;;;;;11.57;6.53;;;21.70;48.80;;;;;;5096144;28;20068;-71
2021/12/15 05:28:32;;;;;;;10.57;6.40;;;21.70;50.50;;;;;;5095707;28;20056;-71
2021/12/15 05:30:58;;;;;;;10.40;6.63;;;21.80;51.90;;;;;;5095948;28;20048;-72
2021/12/15 05:33:26;;;;;;;9.65;6.20;;;21.60;51.30;;;;;;5095671;28;20063;-73
2021/12/15 05:35:53;;;;;;;13.50;7.72;;;21.70;51.70;;;;;;5095706;28;20089;-71
2021/12/15 05:38:19;;;;;;;9.55;6.03;;;21.60;52.10;;;;;;5095832;28;20071;-71
2021/12/15 05:40:45;;;;;;;13.68;8.30;;;21.50;53.00;;;;;;5097291;28;20028;-71
2021/12/15 05:43:11;;;;;;;11.90;7.18;;;21.50;53.60;;;;;;5100012;28;20071;-70
2021/12/15 05:45:40;;;;;;;8.43;6.22;;;21.50;54.20;;;;;;5099901;28;20055;-71
2021/12/15 05:48:10;;;;;;;8.77;6.40;;;21.60;54.10;;;;;;5099768;28;20047;-71
2021/12/15 05:50:37;;;;;;;12.38;6.57;;;21.50;55.00;;;;;;5099494;28;20055;-71
2021/12/15 05:53:04;;;;;;;5.40;3.75;;;21.50;54.50;;;;;;5099813;28;20055;-72
2021/12/15 05:55:31;;;;;;;9.63;5.57;;;21.40;44.10;;;;;;5099437;28;20043;-72
2021/12/15 05:57:57;;;;;;;5.45;3.60;;;21.70;43.90;;;;;;5099756;28;20056;-71
2021/12/15 06:00:28;;;;;;;6.10;3.15;;;21.80;43.40;;;;;;5099735;28;20041;-71
2021/12/15 06:02:56;;;;;;;5.72;3.65;;;22.00;44.70;;;;;;5099533;28;20055;-70
2021/12/15 06:05:24;;;;;;;4.78;2.85;;;22.10;43.10;;;;;;5079272;28;20048;-71
2021/12/15 06:07:50;;;;;;;5.38;2.90;;;22.30;44.70;;;;;;5079234;28;20048;-69
2021/12/15 06:10:22;;;;;;;6.72;4.03;;;22.40;40.80;;;;;;5079141;28;20040;-70
2021/12/15 06:12:50;;;;;;;6.13;4.60;;;22.30;39.70;;;;;;5078830;28;20105;-70
2021/12/15 06:15:23;;;;;;;6.53;5.28;;;22.30;37.50;;;;;;5079290;28;20045;-69
2021/12/15 06:18:14;;;;;;;9.95;6.65;;;22.30;39.60;;;;;;5078926;28;20044;-70
2021/12/15 06:20:41;;;;;;;7.63;4.28;;;22.30;39.50;;;;;;5078790;28;20061;-70
2021/12/15 06:23:16;;;;;;;9.43;5.35;;;22.30;39.10;;;;;;5079000;28;20044;-70
2021/12/15 06:25:44;;;;;;;8.52;4.55;;;22.40;39.90;;;;;;5079016;28;20028;-70
2021/12/15 06:28:10;;;;;;;6.95;4.18;;;22.30;39.40;;;;;;5078707;28;20060;-69
2021/12/15 06:30:37;;;;;;;7.60;4.97;;;22.20;40.10;;;;;;5096196;28;20086;-69
2021/12/15 06:33:05;;;;;;;8.20;4.88;;;22.20;39.30;;;;;;5095623;28;20044;-69
2021/12/15 06:35:32;;;;;;;8.38;5.82;;;22.30;39.10;;;;;;5097946;28;20044;-71
2021/12/15 06:37:58;;;;;;;12.02;6.90;;;22.30;41.70;;;;;;5098235;28;20032;-71
2021/12/15 06:40:24;;;;;;;11.27;6.25;;;22.40;52.70;;;;;;5098478;28;20040;-71
2021/12/15 06:42:50;;;;;;;12.75;7.18;;;22.40;53.30;;;;;;5098535;28;20105;-71
2021/12/15 06:45:22;;;;;;;8.63;5.13;;;22.50;53.80;;;;;;5098364;28;20052;-71
2021/12/15 06:59:03;;;;;;;9.07;5.70;;;22.50;55.60;;;;;;5092907;28;20052;-70
2021/12/15 07:01:29;;;;;;;8.57;5.47;;;22.50;54.90;;;;;;5098251;28;20048;-70
2021/12/15 07:03:56;;;;;;;9.10;5.07;;;22.40;55.40;;;;;;5098314;28;20060;-71
2021/12/15 07:06:23;;;;;;;10.93;7.00;;;22.40;55.40;;;;;;5098176;28;20048;-71
2021/12/15 07:08:53;;;;;;;12.82;7.35;;;22.40;55.50;;;;;;5098386;28;20046;-72
2021/12/15 07:11:19;;;;;;;9.63;6.72;;;22.40;56.20;;;;;;5097496;28;20119;-73
2021/12/15 07:13:46;;;;;;;10.43;6.30;;;22.40;56.50;;;;;;5097879;28;20048;-72
2021/12/15 07:16:12;;;;;;;14.52;7.75;;;22.40;55.90;;;;;;5098359;28;20062;-73
2021/12/15 07:21:34;;;;;;;11.82;7.20;;;22.50;57.40;;;;;;5097028;28;20048;-73
2021/12/15 07:24:02;;;;;;;10.27;7.13;;;22.30;57.60;;;;;;5098163;28;20048;-72
2021/12/15 07:26:28;;;;;;;14.18;7.88;;;22.50;57.30;;;;;;5097896;28;20028;-74
2021/12/15 07:28:54;;;;;;;10.98;6.35;;;22.50;57.50;;;;;;5097723;28;20112;-72
2021/12/15 07:31:21;;;;;;;24.92;11.00;;;22.40;49.00;;;;;;5097740;28;20101;-71
2021/12/15 07:33:47;;;;;;;6.68;4.38;;;22.50;46.10;;;;;;5097641;28;20037;-73
2021/12/15 07:36:16;;;;;;;12.07;4.97;;;22.60;45.70;;;;;;5097806;28;20066;-73
2021/12/15 07:38:42;;;;;;;8.07;5.50;;;22.60;44.20;;;;;;5097637;28;20060;-73
2021/12/15 07:41:22;;;;;;;10.00;6.53;;;22.70;41.70;;;;;;5097635;28;20044;-72
2021/12/15 07:43:49;;;;;;;11.90;7.20;;;22.70;41.10;;;;;;5097715;28;20103;-71
2021/12/15 07:46:15;;;;;;;10.57;7.22;;;22.70;44.50;;;;;;5097207;28;20097;-72
2021/12/15 07:48:41;;;;;;;11.38;6.95;;;23.00;66.80;;;;;;5097290;28;20041;-72
2021/12/15 07:51:09;;;;;;;12.55;6.97;;;23.10;64.80;;;;;;5097504;28;20056;-73
2021/12/15 07:53:41;;;;;;;13.52;7.03;;;23.00;63.10;;;;;;5097387;28;20107;-74
2021/12/15 07:56:07;;;;;;;10.48;6.68;;;23.10;60.80;;;;;;5097357;28;20044;-74
2021/12/15 07:58:34;;;;;;;18.77;8.25;;;23.10;61.50;;;;;;5097247;28;20040;-73
2021/12/15 08:01:03;;;;;;;15.63;7.50;;;23.00;60.50;;;;;;5097346;28;20048;-75
2021/12/15 08:03:32;;;;;;;11.88;8.07;;;23.00;60.40;;;;;;5096245;28;20036;-74
2021/12/15 08:05:59;;;;;;;14.02;7.85;;;23.10;60.30;;;;;;5096372;28;20039;-72
2021/12/15 08:08:25;;;;;;;16.13;8.68;;;23.00;60.20;;;;;;5096818;28;20048;-72
2021/12/15 08:10:57;;;;;;;16.65;9.27;;;22.90;59.90;;;;;;5097226;28;20041;-71
2021/12/15 08:13:25;;;;;;;22.70;11.82;;;22.80;59.30;;;;;;5097132;28;20064;-71
2021/12/15 08:15:52;;;;;;;19.27;8.88;;;22.70;58.10;;;;;;5096193;28;20071;-71
2021/12/15 08:18:18;;;;;;;23.55;11.18;;;22.50;58.70;;;;;;5096796;28;20036;-71
2021/12/15 08:20:45;;;;;;;23.02;9.88;;;22.40;58.70;;;;;;5096698;28;20048;-71
2021/12/15 08:23:17;;;;;;;15.10;8.63;;;22.40;57.90;;;;;;5096169;28;20032;-70
2021/12/15 08:25:45;;;;;;;16.67;8.55;;;22.30;59.10;;;;;;5095097;28;20055;-72
2021/12/15 08:28:13;;;;;;;11.20;6.32;;;22.30;59.10;;;;;;5096274;28;20044;-72
2021/12/15 08:30:41;;;;;;;17.50;9.00;;;22.40;58.50;;;;;;5096417;28;20069;-71
2021/12/15 08:33:12;;;;;;;12.50;6.90;;;22.60;58.70;;;;;;5096703;28;20047;-72
2021/12/15 08:35:44;;;;;;;16.30;8.50;;;22.60;57.20;;;;;;5096594;28;20040;-74
2021/12/15 08:38:12;;;;;;;22.75;8.07;;;22.70;56.40;;;;;;5095734;28;20088;-72
2021/12/15 08:40:39;;;;;;;15.40;7.80;;;22.80;56.20;;;;;;5095123;28;20032;-72
2021/12/15 08:43:09;;;;;;;19.13;9.10;;;22.90;58.20;;;;;;5094991;28;20036;-71
2021/12/15 08:45:38;;;;;;;15.82;8.75;;;22.70;55.00;;;;;;5096041;28;20100;-70
2021/12/15 08:48:06;;;;;;;19.63;10.38;;;22.60;50.90;;;;;;5096516;28;20055;-70
2021/12/15 08:50:36;;;;;;;17.38;9.63;;;22.50;48.90;;;;;;5096216;28;20048;-70
2021/12/15 08:53:04;;;;;;;21.00;11.30;;;22.30;49.20;;;;;;5095123;28;20040;-70
2021/12/15 08:55:33;;;;;;;19.95;10.70;;;22.20;48.20;;;;;;5096189;28;20064;-71
2021/12/15 08:58:04;;;;;;;21.23;10.48;;;22.00;49.50;;;;;;5096071;28;20040;-70
2021/12/15 09:00:31;;;;;;;23.67;8.38;;;21.90;50.40;;;;;;5095242;28;20036;-72
2021/12/15 09:02:58;;;;;;;23.50;12.05;;;21.90;50.70;;;;;;5096343;28;20048;-72
2021/12/15 09:05:27;;;;;;;19.88;10.57;;;21.80;49.40;;;;;;5082581;28;20024;-69
2021/12/15 09:07:57;;;;;;;18.65;10.18;;;21.80;50.20;;;;;;5076316;28;20056;-70
2021/12/15 09:10:26;;;;;;;19.00;9.88;;;21.60;49.30;;;;;;5076055;28;20037;-70
2021/12/15 09:12:52;;;;;;;20.13;10.35;;;21.60;50.90;;;;;;5075603;28;20048;-70
2021/12/15 09:15:19;;;;;;;21.52;8.65;;;21.60;49.50;;;;;;5075574;28;20040;-70
2021/12/15 09:17:45;;;;;;;17.80;9.60;;;21.50;50.40;;;;;;5075892;28;20041;-70
2021/12/15 09:20:15;;;;;;;19.83;10.30;;;21.60;51.40;;;;;;5075271;28;20037;-71
2021/12/15 09:22:44;;;;;;;20.98;9.90;;;21.60;51.10;;;;;;5075762;28;20037;-71
2021/12/15 09:25:12;;;;;;;15.18;7.28;;;21.60;52.20;;;;;;5075954;28;20033;-69
2021/12/15 09:27:45;;;;;;;14.40;6.60;;;21.60;43.40;;;;;;5076187;28;20032;-69
2021/12/15 09:30:17;;;;;;;9.98;6.10;;;21.90;40.40;;;;;;5080921;28;20068;-69
2021/12/15 09:32:44;;;;;;;11.98;6.50;;;22.10;38.20;;;;;;5074343;28;20100;-69
2021/12/15 09:35:13;;;;;;;15.57;5.97;;;22.30;38.70;;;;;;5075187;28;20037;-69
2021/12/15 09:37:40;;;;;;;16.70;7.88;;;22.40;37.80;;;;;;5075316;28;20037;-68
2021/12/15 09:40:10;;;;;;;11.85;6.40;;;22.50;36.60;;;;;;5089651;28;20048;-69
2021/12/15 09:42:39;;;;;;;11.82;7.28;;;22.60;36.80;;;;;;5095756;28;20032;-69
2021/12/15 09:45:23;;;;;;;13.93;8.20;;;22.60;36.90;;;;;;5095188;28;20048;-69
2021/12/15 10:05:05;;;;;;;8.60;4.55;;;23.30;34.30;;;;;;5095370;28;20112;-68
2021/12/15 10:20:58;;;;;;;13.40;5.88;;;23.60;31.80;;;;;;5095471;28;20041;-69
2021/12/15 10:23:31;;;;;;;7.32;3.80;;;23.50;34.10;;;;;;5094790;28;20044;-68
2021/12/15 10:25:57;;;;;;;7.18;4.75;;;23.50;32.20;;;;;;5095552;28;20051;-68
2021/12/15 10:28:26;;;;;;;6.82;4.07;;;23.60;34.10;;;;;;5099088;28;20107;-69
2021/12/15 10:30:59;;;;;;;7.00;4.05;;;23.60;34.60;;;;;;5098535;28;20712;-69
2021/12/15 10:33:31;;;;;;;14.80;5.57;;;23.60;40.40;;;;;;5098953;28;20069;-70
2021/12/15 10:36:05;;;;;;;11.32;7.75;;;23.80;41.50;;;;;;5081452;28;20045;-70
2021/12/15 10:38:33;;;;;;;10.10;6.18;;;23.80;39.10;;;;;;5098922;28;20048;-69
2021/12/15 10:41:07;;;;;;;9.02;6.40;;;23.80;33.30;;;;;;5078348;28;20032;-69
2021/12/15 10:43:50;;;;;;;13.38;7.88;;;23.90;42.20;;;;;;5078408;28;20048;-70
2021/12/15 10:46:27;;;;;;;13.38;7.57;;;23.80;46.80;;;;;;5078575;28;20060;-71
2021/12/15 10:48:59;;;;;;;12.10;7.75;;;23.70;50.30;;;;;;5077984;28;20044;-70
2021/12/15 10:51:40;;;;;;;14.63;9.30;;;23.80;52.40;;;;;;5078279;28;20037;-71
2021/12/15 10:54:20;;;;;;;17.27;7.93;;;23.90;48.70;;;;;;5077738;28;20065;-71
2021/12/15 10:57:04;;;;;;;11.50;7.32;;;23.80;51.00;;;;;;5078380;28;20056;-70
2021/12/15 10:59:37;;;;;;;12.32;8.88;;;23.70;50.30;;;;;;5078770;28;20086;-70
2021/12/15 11:02:09;;;;;;;18.05;9.02;;;23.70;51.70;;;;;;5078462;28;20041;-71
2021/12/15 11:04:47;;;;;;;12.90;8.07;;;23.90;49.40;;;;;;5078542;28;20041;-69
2021/12/15 11:07:31;;;;;;;14.65;8.05;;;24.40;48.60;;;;;;5096363;28;20052;-70
2021/12/15 11:10:10;;;;;;;12.20;7.88;;;24.70;47.60;;;;;;5078225;28;20041;-71
2021/12/15 11:12:41;;;;;;;16.45;9.52;;;24.60;47.20;;;;;;5077970;28;20105;-70
2021/12/15 11:15:13;;;;;;;12.65;8.05;;;24.80;47.20;;;;;;5077975;28;20056;-68
2021/12/15 11:17:44;;;;;;;17.15;8.88;;;24.70;47.30;;;;;;5078266;28;20072;-68
2021/12/15 11:20:15;;;;;;;12.93;7.18;;;24.60;46.20;;;;;;5078047;28;20037;-68
2021/12/15 11:22:52;;;;;;;15.30;8.20;;;24.40;48.00;;;;;;5077888;28;20126;-69
2021/12/15 11:25:27;;;;;;;16.35;9.50;;;24.30;47.50;;;;;;5078035;28;20079;-69
2021/12/15 11:27:59;;;;;;;18.15;9.82;;;24.20;47.30;;;;;;5078112;28;20075;-69
2021/12/15 11:30:31;;;;;;;14.05;8.40;;;24.20;47.10;;;;;;5077030;28;20061;-69
2021/12/15 11:33:20;;;;;;;13.48;6.97;;;23.90;48.40;;;;;;5097508;28;20072;-69
2021/12/15 11:35:59;;;;;;;15.50;9.45;;;23.80;49.40;;;;;;5097629;28;20082;-71
2021/12/15 11:38:30;;;;;;;16.73;8.48;;;23.50;49.70;;;;;;5097118;28;20040;-71
2021/12/15 11:40:56;;;;;;;15.68;8.80;;;23.50;51.00;;;;;;5096827;28;20051;-71
2021/12/15 11:43:39;;;;;;;12.38;7.25;;;23.40;51.60;;;;;;5097784;28;20123;-70
2021/12/15 11:46:24;;;;;;;13.90;8.27;;;23.20;52.30;;;;;;5097687;28;20044;-71
2021/12/15 11:49:15;;;;;;;16.45;8.52;;;23.30;51.60;;;;;;5097080;28;20036;-72
2021/12/15 11:51:43;;;;;;;15.45;8.38;;;23.10;52.40;;;;;;5097368;28;20040;-71
2021/12/15 11:54:30;;;;;;;14.40;8.10;;;23.10;53.60;;;;;;5097432;28;20036;-71
2021/12/15 11:57:15;;;;;;;7.82;5.90;;;23.10;53.70;;;;;;5096776;28;20128;-71
2021/12/15 11:59:44;;;;;;;14.68;9.43;;;23.20;53.70;;;;;;5097408;28;20063;-70
2021/12/15 12:02:23;;;;;;;13.85;8.27;;;23.10;52.50;;;;;;5096996;28;20054;-70
2021/12/15 12:05:03;;;;;;;11.27;7.05;;;22.90;54.90;;;;;;5097144;28;20052;-71
2021/12/15 12:07:38;;;;;;;13.23;7.53;;;23.00;53.70;;;;;;5097261;28;20079;-71
2021/12/15 12:10:16;;;;;;;13.30;7.55;;;22.90;55.30;;;;;;5096741;28;20060;-71
2021/12/15 12:12:53;;;;;;;11.95;7.00;;;22.70;55.40;;;;;;5097073;28;20052;-70
2021/12/15 12:15:27;;;;;;;13.10;8.05;;;22.70;53.80;;;;;;5096555;28;20052;-70
2021/12/15 12:18:00;;;;;;;12.00;6.90;;;22.50;55.40;;;;;;5097085;28;20044;-70
2021/12/15 12:20:47;;;;;;;10.98;6.75;;;22.50;54.40;;;;;;5096892;28;20036;-69
2021/12/15 12:23:18;;;;;;;13.60;7.28;;;22.60;55.40;;;;;;5095709;28;20097;-69
2021/12/15 12:25:48;;;;;;;10.68;6.95;;;22.50;57.80;;;;;;5095883;28;20044;-69
2021/12/15 12:28:18;;;;;;;14.57;7.70;;;22.50;58.20;;;;;;5096420;28;20037;-69
2021/12/15 12:30:55;;;;;;;12.88;7.53;;;22.50;58.40;;;;;;5096431;28;20061;-70
2021/12/15 12:33:24;;;;;;;11.60;7.25;;;22.60;58.70;;;;;;5096564;28;20049;-70
2021/12/15 12:36:02;;;;;;;10.65;6.72;;;22.50;59.10;;;;;;5096717;28;20036;-70
2021/12/15 12:38:31;;;;;;;15.55;8.73;;;22.70;59.00;;;;;;5096489;28;20052;-70
2021/12/15 12:41:05;;;;;;;13.65;7.55;;;22.60;58.70;;;;;;5096605;28;20037;-70
2021/12/15 12:43:40;;;;;;;11.43;7.65;;;22.60;58.90;;;;;;5096304;28;20044;-71
2021/12/15 12:46:18;;;;;;;13.50;7.82;;;22.60;58.90;;;;;;5096589;28;20048;-71
2021/12/15 13:00:28;;;;;;;12.15;6.15;;;22.60;58.20;;;;;;5096450;28;20041;-70
2021/12/15 13:03:02;;;;;;;10.68;6.93;;;22.60;56.80;;;;;;5096376;28;20048;-69
2021/12/15 13:05:44;;;;;;;11.05;6.78;;;22.50;58.00;;;;;;5096114;28;20040;-69
2021/12/15 13:08:34;;;;;;;13.02;7.22;;;22.60;57.70;;;;;;5096484;28;20100;-70
2021/12/15 13:11:07;;;;;;;13.20;7.13;;;22.70;57.80;;;;;;5096210;28;20048;-70
2021/12/15 13:13:48;;;;;;;15.02;6.72;;;22.70;57.40;;;;;;5096086;28;20036;-70
2021/12/15 13:16:24;;;;;;;13.85;8.00;;;22.60;56.70;;;;;;5096326;28;20044;-69
2021/12/15 13:18:56;;;;;;;11.43;6.30;;;22.60;57.30;;;;;;5096136;28;20033;-70
2021/12/15 13:21:47;;;;;;;14.85;7.78;;;22.60;57.40;;;;;;5096314;28;20064;-70
2021/12/15 13:30:52;;;;;;;15.43;9.23;;;22.40;57.10;;;;;;5094528;28;20079;-69
2021/12/15 13:33:30;;;;;;;14.95;8.05;;;22.50;57.00;;;;;;5094289;28;20044;-69
2021/12/15 13:36:04;;;;;;;18.15;8.02;;;22.30;56.90;;;;;;5094640;28;20032;-69
2021/12/15 13:38:35;;;;;;;13.75;7.78;;;22.40;57.00;;;;;;5095283;28;20036;-70
2021/12/15 13:41:38;;;;;;;13.30;7.05;;;22.30;56.80;;;;;;5095944;28;20044;-69
2021/12/15 13:44:36;;;;;;;12.88;6.75;;;22.40;56.70;;;;;;5094646;28;20037;-69
2021/12/15 13:47:17;;;;;;;13.55;6.32;;;22.30;56.90;;;;;;5095316;28;20037;-69
2021/12/15 13:49:46;;;;;;;9.93;6.05;;;22.30;56.50;;;;;;5096124;28;20033;-69
2021/12/15 13:52:44;;;;;;;8.65;4.85;;;22.30;56.40;;;;;;5095466;28;20052;-70
2021/12/15 13:55:20;;;;;;;8.93;5.20;;;22.40;56.40;;;;;;5094772;28;20040;-70
2021/12/15 13:57:46;;;;;;;8.00;4.95;;;22.40;56.20;;;;;;5095968;28;20071;-69
2021/12/15 14:00:16;;;;;;;7.88;4.60;;;22.30;56.20;;;;;;5095768;28;20041;-70
2021/12/15 14:03:02;;;;;;;8.98;4.95;;;22.40;55.90;;;;;;5098347;28;20049;-70
2021/12/15 14:05:32;;;;;;;9.43;4.63;;;22.40;55.90;;;;;;5099611;28;20036;-70
2021/12/15 14:08:04;;;;;;;9.35;5.43;;;22.30;55.80;;;;;;5098719;28;20048;-70
2021/12/15 14:10:30;;;;;;;8.10;4.50;;;22.40;55.70;;;;;;5099457;28;20124;-70
2021/12/15 14:12:59;;;;;;;8.15;5.07;;;22.30;56.00;;;;;;5099277;28;20060;-69
2021/12/15 14:15:26;;;;;;;7.05;4.57;;;22.40;56.60;;;;;;5099020;28;20029;-70
2021/12/15 14:18:15;;;;;;;8.77;4.78;;;22.40;57.50;;;;;;5099112;28;20048;-69
2021/12/15 14:20:46;;;;;;;7.47;4.78;;;22.90;58.00;;;;;;5099225;28;20047;-70
2021/12/15 14:23:22;;;;;;;9.27;4.78;;;22.90;56.80;;;;;;5099276;28;20052;-69
2021/12/15 14:25:48;;;;;;;8.27;5.20;;;22.80;56.80;;;;;;5099392;28;20048;-69
2021/12/15 14:28:22;;;;;;;9.48;5.25;;;22.70;57.00;;;;;;5099103;28;20040;-69
2021/12/15 14:30:55;;;;;;;10.88;5.00;;;22.60;57.30;;;;;;5099079;28;20059;-70
2021/12/15 14:33:33;;;;;;;7.68;4.85;;;22.60;57.40;;;;;;5098956;28;20055;-70
2021/12/15 14:36:05;;;;;;;4.88;3.65;;;22.50;58.40;;;;;;5099033;28;20045;-69
2021/12/15 14:38:43;;;;;;;5.57;2.72;;;22.90;49.30;;;;;;5098729;28;20044;-70